sensor_id;sensor_type;location;lat;lon;timestamp;pressure;altitude;pressure_sealevel;temperature;humidity
37972;BME280;23794;48.234;8.344;2023-01-31T00:01:30;95172.09;;;-0.03;79.97
37972;BME280;23794;48.234;8.344;2023-01-31T00:04:03;95170.50;;;-0.04;80.02
37972;BME280;23794;48.234;8.344;2023-01-31T00:06:36;95163.03;;;-0.07;80.14
37972;BME280;23794;48.234;8.344;2023-01-31T00:09:06;95155.13;;;-0.03;80.27
37972;BME280;23794;48.234;8.344;2023-01-31T00:11:34;95155.59;;;-0.10;80.37
37972;BME280;23794;48.234;8.344;2023-01-31T00:14:03;95156.88;;;-0.08;80.36
37972;BME280;23794;48.234;8.344;2023-01-31T00:16:30;95150.50;;;-0.12;80.50
37972;BME280;23794;48.234;8.344;2023-01-31T00:18:57;95147.63;;;-0.15;80.40
37972;BME280;23794;48.234;8.344;2023-01-31T00:21:26;95148.78;;;-0.08;80.41
37972;BME280;23794;48.234;8.344;2023-01-31T00:23:55;95150.03;;;-0.14;79.92
37972;BME280;23794;48.234;8.344;2023-01-31T00:26:24;95137.94;;;-0.16;79.67
37972;BME280;23794;48.234;8.344;2023-01-31T00:28:52;95127.97;;;-0.16;79.57
37972;BME280;23794;48.234;8.344;2023-01-31T00:31:21;95132.38;;;-0.20;80.01
37972;BME280;23794;48.234;8.344;2023-01-31T00:33:49;95140.09;;;-0.27;79.94
37972;BME280;23794;48.234;8.344;2023-01-31T00:36:20;95143.13;;;-0.29;80.09
37972;BME280;23794;48.234;8.344;2023-01-31T00:38:52;95136.03;;;-0.25;80.14
37972;BME280;23794;48.234;8.344;2023-01-31T00:41:22;95140.78;;;-0.22;80.05
37972;BME280;23794;48.234;8.344;2023-01-31T00:43:49;95144.28;;;-0.21;80.05
37972;BME280;23794;48.234;8.344;2023-01-31T00:46:16;95142.06;;;-0.19;80.44
37972;BME280;23794;48.234;8.344;2023-01-31T00:48:47;95150.81;;;-0.13;80.01
37972;BME280;23794;48.234;8.344;2023-01-31T00:51:14;95144.13;;;-0.16;79.82
37972;BME280;23794;48.234;8.344;2023-01-31T00:53:41;95142.56;;;-0.17;80.02
37972;BME280;23794;48.234;8.344;2023-01-31T00:56:10;95140.03;;;-0.13;79.86
37972;BME280;23794;48.234;8.344;2023-01-31T00:58:37;95146.84;;;-0.16;79.69
37972;BME280;23794;48.234;8.344;2023-01-31T01:03:37;95140.59;;;-0.25;80.38
37972;BME280;23794;48.234;8.344;2023-01-31T01:06:05;95142.94;;;-0.32;80.56
37972;BME280;23794;48.234;8.344;2023-01-31T01:08:32;95131.38;;;-0.33;80.34
37972;BME280;23794;48.234;8.344;2023-01-31T01:11:08;95126.28;;;-0.34;80.02
37972;BME280;23794;48.234;8.344;2023-01-31T01:13:35;95121.66;;;-0.43;79.92
37972;BME280;23794;48.234;8.344;2023-01-31T01:16:19;95125.09;;;-0.51;80.84
37972;BME280;23794;48.234;8.344;2023-01-31T01:18:47;95125.28;;;-0.47;80.30
37972;BME280;23794;48.234;8.344;2023-01-31T01:21:22;95120.50;;;-0.50;80.40
37972;BME280;23794;48.234;8.344;2023-01-31T01:23:49;95121.28;;;-0.50;80.29
37972;BME280;23794;48.234;8.344;2023-01-31T01:26:22;95126.94;;;-0.60;80.23
37972;BME280;23794;48.234;8.344;2023-01-31T01:28:51;95126.88;;;-0.69;80.47
37972;BME280;23794;48.234;8.344;2023-01-31T01:31:18;95123.72;;;-0.71;79.98
37972;BME280;23794;48.234;8.344;2023-01-31T01:33:47;95117.66;;;-0.77;80.00
37972;BME280;23794;48.234;8.344;2023-01-31T01:36:16;95118.56;;;-0.81;80.09
37972;BME280;23794;48.234;8.344;2023-01-31T01:38:44;95108.84;;;-0.91;80.17
37972;BME280;23794;48.234;8.344;2023-01-31T01:41:11;95105.16;;;-0.95;80.33
37972;BME280;23794;48.234;8.344;2023-01-31T01:43:46;95112.06;;;-1.03;80.59
37972;BME280;23794;48.234;8.344;2023-01-31T01:46:37;95105.88;;;-1.04;80.57
37972;BME280;23794;48.234;8.344;2023-01-31T01:49:21;95100.94;;;-1.10;80.89
37972;BME280;23794;48.234;8.344;2023-01-31T01:51:51;95092.38;;;-1.12;81.17
37972;BME280;23794;48.234;8.344;2023-01-31T01:54:24;95096.06;;;-1.08;81.12
37972;BME280;23794;48.234;8.344;2023-01-31T01:56:53;95097.16;;;-1.09;81.10
37972;BME280;23794;48.234;8.344;2023-01-31T01:59:30;95111.06;;;-1.07;81.32
37972;BME280;23794;48.234;8.344;2023-01-31T02:01:58;95116.94;;;-1.05;81.25
37972;BME280;23794;48.234;8.344;2023-01-31T02:04:31;95122.13;;;-1.09;81.51
37972;BME280;23794;48.234;8.344;2023-01-31T02:06:59;95119.03;;;-1.02;81.79
37972;BME280;23794;48.234;8.344;2023-01-31T02:09:34;95113.03;;;-0.99;82.12
37972;BME280;23794;48.234;8.344;2023-01-31T02:12:05;95114.03;;;-0.95;82.08
37972;BME280;23794;48.234;8.344;2023-01-31T02:17:52;95120.94;;;-0.80;81.45
37972;BME280;23794;48.234;8.344;2023-01-31T02:23:30;95130.97;;;-0.72;81.38
37972;BME280;23794;48.234;8.344;2023-01-31T02:29:15;95122.47;;;-0.65;81.22
37972;BME280;23794;48.234;8.344;2023-01-31T02:34:41;95124.25;;;-0.60;80.72
37972;BME280;23794;48.234;8.344;2023-01-31T02:40:06;95122.69;;;-0.53;80.51
37972;BME280;23794;48.234;8.344;2023-01-31T02:48:18;95122.78;;;-0.44;80.76
37972;BME280;23794;48.234;8.344;2023-01-31T02:53:43;95133.09;;;-0.37;80.80
37972;BME280;23794;48.234;8.344;2023-01-31T02:56:24;95135.47;;;-0.35;80.09
37972;BME280;23794;48.234;8.344;2023-01-31T02:58:58;95141.63;;;-0.44;80.05
37972;BME280;23794;48.234;8.344;2023-01-31T03:01:32;95136.09;;;-0.39;80.24
37972;BME280;23794;48.234;8.344;2023-01-31T03:04:04;95142.44;;;-0.34;79.83
37972;BME280;23794;48.234;8.344;2023-01-31T03:09:18;95141.53;;;-0.30;79.46
37972;BME280;23794;48.234;8.344;2023-01-31T03:22:42;95140.44;;;-0.29;79.77
37972;BME280;23794;48.234;8.344;2023-01-31T03:25:13;95140.91;;;-0.27;79.43
37972;BME280;23794;48.234;8.344;2023-01-31T03:27:45;95149.50;;;-0.25;79.07
37972;BME280;23794;48.234;8.344;2023-01-31T03:30:26;95147.59;;;-0.24;79.07
37972;BME280;23794;48.234;8.344;2023-01-31T03:33:03;95154.88;;;-0.25;78.79
37972;BME280;23794;48.234;8.344;2023-01-31T03:35:33;95148.53;;;-0.20;79.05
37972;BME280;23794;48.234;8.344;2023-01-31T03:38:14;95152.22;;;-0.16;79.18
37972;BME280;23794;48.234;8.344;2023-01-31T03:40:55;95147.25;;;-0.23;79.24
37972;BME280;23794;48.234;8.344;2023-01-31T03:43:43;95150.28;;;-0.24;79.23
37972;BME280;23794;48.234;8.344;2023-01-31T03:46:19;95156.63;;;-0.20;79.37
37972;BME280;23794;48.234;8.344;2023-01-31T03:48:53;95151.06;;;-0.24;79.78
37972;BME280;23794;48.234;8.344;2023-01-31T03:51:26;95161.38;;;-0.26;79.84
37972;BME280;23794;48.234;8.344;2023-01-31T03:54:04;95153.75;;;-0.24;79.76
37972;BME280;23794;48.234;8.344;2023-01-31T03:59:07;95145.81;;;-0.29;79.99
37972;BME280;23794;48.234;8.344;2023-01-31T04:01:40;95139.66;;;-0.29;79.67
37972;BME280;23794;48.234;8.344;2023-01-31T04:04:17;95140.59;;;-0.25;79.59
37972;BME280;23794;48.234;8.344;2023-01-31T04:06:44;95138.91;;;-0.21;79.15
37972;BME280;23794;48.234;8.344;2023-01-31T04:09:12;95139.66;;;-0.29;79.58
37972;BME280;23794;48.234;8.344;2023-01-31T04:11:40;95138.91;;;-0.21;79.74
37972;BME280;23794;48.234;8.344;2023-01-31T04:14:07;95146.13;;;-0.30;79.74
37972;BME280;23794;48.234;8.344;2023-01-31T04:16:34;95146.47;;;-0.23;79.60
37972;BME280;23794;48.234;8.344;2023-01-31T04:19:00;95144.41;;;-0.26;79.51
37972;BME280;23794;48.234;8.344;2023-01-31T04:21:27;95141.03;;;-0.32;79.13
37972;BME280;23794;48.234;8.344;2023-01-31T04:23:54;95148.50;;;-0.29;79.59
37972;BME280;23794;48.234;8.344;2023-01-31T04:26:21;95152.19;;;-0.25;79.34
37972;BME280;23794;48.234;8.344;2023-01-31T04:28:48;95154.66;;;-0.28;79.44
37972;BME280;23794;48.234;8.344;2023-01-31T04:31:14;95167.66;;;-0.30;79.83
37972;BME280;23794;48.234;8.344;2023-01-31T04:33:41;95158.13;;;-0.37;79.35
37972;BME280;23794;48.234;8.344;2023-01-31T04:36:08;95164.97;;;-0.30;79.33
37972;BME280;23794;48.234;8.344;2023-01-31T04:38:36;95167.53;;;-0.25;79.45
37972;BME280;23794;48.234;8.344;2023-01-31T04:41:03;95158.03;;;-0.23;79.49
37972;BME280;23794;48.234;8.344;2023-01-31T04:43:30;95160.63;;;-0.17;79.31
37972;BME280;23794;48.234;8.344;2023-01-31T04:45:57;95167.22;;;-0.24;79.17
37972;BME280;23794;48.234;8.344;2023-01-31T04:48:23;95163.75;;;-0.24;78.94
37972;BME280;23794;48.234;8.344;2023-01-31T04:50:50;95172.13;;;-0.26;78.67
37972;BME280;23794;48.234;8.344;2023-01-31T04:53:17;95168.53;;;-0.21;78.85
37972;BME280;23794;48.234;8.344;2023-01-31T04:55:44;95179.16;;;-0.16;78.68
37972;BME280;23794;48.234;8.344;2023-01-31T04:58:10;95170.75;;;-0.14;78.28
37972;BME280;23794;48.234;8.344;2023-01-31T05:00:37;95169.47;;;-0.17;78.59
37972;BME280;23794;48.234;8.344;2023-01-31T05:03:04;95169.34;;;-0.12;78.65
37972;BME280;23794;48.234;8.344;2023-01-31T05:05:32;95159.06;;;-0.10;79.12
37972;BME280;23794;48.234;8.344;2023-01-31T05:08:01;95161.75;;;-0.10;78.99
37972;BME280;23794;48.234;8.344;2023-01-31T05:10:28;95154.41;;;-0.18;79.13
37972;BME280;23794;48.234;8.344;2023-01-31T05:12:55;95163.78;;;-0.15;79.15
37972;BME280;23794;48.234;8.344;2023-01-31T05:15:21;95166.78;;;-0.17;78.89
37972;BME280;23794;48.234;8.344;2023-01-31T05:17:52;95166.59;;;-0.21;78.96
37972;BME280;23794;48.234;8.344;2023-01-31T05:20:19;95170.41;;;-0.22;79.42
37972;BME280;23794;48.234;8.344;2023-01-31T05:22:47;95167.41;;;-0.20;79.26
37972;BME280;23794;48.234;8.344;2023-01-31T05:25:14;95162.50;;;-0.18;78.92
37972;BME280;23794;48.234;8.344;2023-01-31T05:27:41;95163.78;;;-0.15;78.84
37972;BME280;23794;48.234;8.344;2023-01-31T05:30:11;95171.75;;;-0.10;78.67
37972;BME280;23794;48.234;8.344;2023-01-31T05:32:37;95172.97;;;-0.16;78.97
37972;BME280;23794;48.234;8.344;2023-01-31T05:35:05;95174.56;;;-0.15;78.75
37972;BME280;23794;48.234;8.344;2023-01-31T05:37:32;95171.06;;;-0.16;78.66
37972;BME280;23794;48.234;8.344;2023-01-31T05:39:59;95171.22;;;-0.21;78.83
37972;BME280;23794;48.234;8.344;2023-01-31T05:42:25;95161.53;;;-0.22;79.55
37972;BME280;23794;48.234;8.344;2023-01-31T05:44:54;95155.66;;;-0.24;79.07
37972;BME280;23794;48.234;8.344;2023-01-31T05:47:21;95165.44;;;-0.28;78.83
37972;BME280;23794;48.234;8.344;2023-01-31T05:49:50;95171.31;;;-0.26;78.68
37972;BME280;23794;48.234;8.344;2023-01-31T05:52:16;95167.84;;;-0.27;78.44
37972;BME280;23794;48.234;8.344;2023-01-31T05:54:43;95175.03;;;-0.45;78.71
37972;BME280;23794;48.234;8.344;2023-01-31T05:57:10;95174.66;;;-0.52;78.98
37972;BME280;23794;48.234;8.344;2023-01-31T05:59:37;95173.47;;;-0.60;79.50
37972;BME280;23794;48.234;8.344;2023-01-31T06:02:04;95180.97;;;-0.57;79.09
37972;BME280;23794;48.234;8.344;2023-01-31T06:04:31;95175.84;;;-0.58;78.97
37972;BME280;23794;48.234;8.344;2023-01-31T06:06:57;95179.34;;;-0.58;79.00
37972;BME280;23794;48.234;8.344;2023-01-31T06:09:24;95184.00;;;-0.72;79.10
37972;BME280;23794;48.234;8.344;2023-01-31T06:11:51;95182.53;;;-0.78;79.28
37972;BME280;23794;48.234;8.344;2023-01-31T06:14:18;95185.03;;;-0.82;79.21
37972;BME280;23794;48.234;8.344;2023-01-31T06:16:44;95186.72;;;-0.86;79.31
37972;BME280;23794;48.234;8.344;2023-01-31T06:19:12;95180.66;;;-0.92;79.47
37972;BME280;23794;48.234;8.344;2023-01-31T06:21:38;95187.75;;;-0.96;79.61
37972;BME280;23794;48.234;8.344;2023-01-31T06:24:05;95191.75;;;-1.07;80.20
37972;BME280;23794;48.234;8.344;2023-01-31T06:26:32;95186.69;;;-1.09;80.22
37972;BME280;23794;48.234;8.344;2023-01-31T06:28:59;95195.56;;;-1.08;80.31
37972;BME280;23794;48.234;8.344;2023-01-31T06:31:26;95195.97;;;-1.15;80.45
37972;BME280;23794;48.234;8.344;2023-01-31T06:33:53;95201.66;;;-1.17;80.30
37972;BME280;23794;48.234;8.344;2023-01-31T06:36:19;95200.56;;;-1.15;79.98
37972;BME280;23794;48.234;8.344;2023-01-31T06:38:50;95199.25;;;-1.18;80.02
37972;BME280;23794;48.234;8.344;2023-01-31T06:41:19;95208.13;;;-1.18;79.94
37972;BME280;23794;48.234;8.344;2023-01-31T06:43:46;95211.59;;;-1.17;79.91
37972;BME280;23794;48.234;8.344;2023-01-31T06:46:12;95212.09;;;-1.15;79.87
37972;BME280;23794;48.234;8.344;2023-01-31T06:48:39;95213.00;;;-1.20;80.02
37972;BME280;23794;48.234;8.344;2023-01-31T06:51:06;95214.09;;;-1.21;80.32
37972;BME280;23794;48.234;8.344;2023-01-31T06:53:33;95220.66;;;-1.13;79.97
37972;BME280;23794;48.234;8.344;2023-01-31T06:55:59;95220.38;;;-1.11;79.69
37972;BME280;23794;48.234;8.344;2023-01-31T06:58:26;95215.38;;;-1.18;79.84
37972;BME280;23794;48.234;8.344;2023-01-31T07:00:53;95205.63;;;-1.28;80.05
37972;BME280;23794;48.234;8.344;2023-01-31T07:03:20;95205.66;;;-1.42;80.03
37972;BME280;23794;48.234;8.344;2023-01-31T07:05:47;95210.16;;;-1.51;80.22
37972;BME280;23794;48.234;8.344;2023-01-31T07:08:14;95208.47;;;-1.61;80.11
37972;BME280;23794;48.234;8.344;2023-01-31T07:10:40;95215.69;;;-1.75;80.45
37972;BME280;23794;48.234;8.344;2023-01-31T07:13:07;95218.09;;;-1.74;80.26
37972;BME280;23794;48.234;8.344;2023-01-31T07:15:34;95209.41;;;-1.71;79.78
37972;BME280;23794;48.234;8.344;2023-01-31T07:18:00;95209.94;;;-1.69;78.95
37972;BME280;23794;48.234;8.344;2023-01-31T07:20:28;95198.78;;;-1.76;79.18
37972;BME280;23794;48.234;8.344;2023-01-31T07:22:57;95205.34;;;-1.82;79.14
37972;BME280;23794;48.234;8.344;2023-01-31T07:25:25;95209.91;;;-1.83;79.15
37972;BME280;23794;48.234;8.344;2023-01-31T07:27:52;95196.78;;;-1.84;79.57
37972;BME280;23794;48.234;8.344;2023-01-31T07:30:18;95212.59;;;-1.83;79.40
37972;BME280;23794;48.234;8.344;2023-01-31T07:32:45;95219.09;;;-1.84;79.52
37972;BME280;23794;48.234;8.344;2023-01-31T07:35:12;95219.38;;;-1.85;79.69
37972;BME280;23794;48.234;8.344;2023-01-31T07:37:39;95225.34;;;-1.74;79.61
37972;BME280;23794;48.234;8.344;2023-01-31T07:40:13;95217.78;;;-1.72;79.28
37972;BME280;23794;48.234;8.344;2023-01-31T07:42:40;95222.19;;;-1.76;79.50
37972;BME280;23794;48.234;8.344;2023-01-31T07:45:09;95222.97;;;-1.76;79.57
37972;BME280;23794;48.234;8.344;2023-01-31T07:47:49;95211.81;;;-1.83;79.31
37972;BME280;23794;48.234;8.344;2023-01-31T07:50:16;95211.22;;;-1.80;79.56
37972;BME280;23794;48.234;8.344;2023-01-31T07:52:45;95214.91;;;-1.76;79.03
37972;BME280;23794;48.234;8.344;2023-01-31T07:55:11;95220.97;;;-1.70;78.95
37972;BME280;23794;48.234;8.344;2023-01-31T07:57:38;95212.03;;;-1.66;78.48
37972;BME280;23794;48.234;8.344;2023-01-31T08:00:05;95217.09;;;-1.64;78.39
37972;BME280;23794;48.234;8.344;2023-01-31T08:02:52;95224.44;;;-1.70;78.83
37972;BME280;23794;48.234;8.344;2023-01-31T08:05:37;95229.81;;;-1.70;79.16
37972;BME280;23794;48.234;8.344;2023-01-31T08:08:04;95224.97;;;-1.68;78.81
37972;BME280;23794;48.234;8.344;2023-01-31T08:10:37;95226.84;;;-1.54;78.72
37972;BME280;23794;48.234;8.344;2023-01-31T08:13:04;95225.06;;;-1.45;78.63
37972;BME280;23794;48.234;8.344;2023-01-31T08:15:32;95225.78;;;-1.39;78.19
37972;BME280;23794;48.234;8.344;2023-01-31T08:17:59;95229.56;;;-1.40;78.30
37972;BME280;23794;48.234;8.344;2023-01-31T08:20:27;95234.72;;;-1.30;78.26
37972;BME280;23794;48.234;8.344;2023-01-31T08:22:55;95240.91;;;-1.29;78.02
37972;BME280;23794;48.234;8.344;2023-01-31T08:25:25;95238.41;;;-1.12;77.53
37972;BME280;23794;48.234;8.344;2023-01-31T08:27:58;95237.78;;;-1.09;77.20
37972;BME280;23794;48.234;8.344;2023-01-31T08:30:26;95238.16;;;-1.02;76.80
37972;BME280;23794;48.234;8.344;2023-01-31T08:32:54;95230.59;;;-0.99;77.04
37972;BME280;23794;48.234;8.344;2023-01-31T08:35:21;95236.75;;;-0.85;76.74
37972;BME280;23794;48.234;8.344;2023-01-31T08:37:48;95234.63;;;-0.74;77.09
37972;BME280;23794;48.234;8.344;2023-01-31T08:40:14;95227.44;;;-0.65;76.45
37972;BME280;23794;48.234;8.344;2023-01-31T08:42:41;95225.31;;;-0.54;76.13
37972;BME280;23794;48.234;8.344;2023-01-31T08:45:08;95221.56;;;-0.44;75.96
37972;BME280;23794;48.234;8.344;2023-01-31T08:47:35;95207.69;;;-0.38;75.67
37972;BME280;23794;48.234;8.344;2023-01-31T08:50:02;95211.00;;;-0.41;75.36
37972;BME280;23794;48.234;8.344;2023-01-31T08:52:29;95208.47;;;-0.14;75.49
37972;BME280;23794;48.234;8.344;2023-01-31T08:55:01;95196.44;;;-0.08;74.22
37972;BME280;23794;48.234;8.344;2023-01-31T08:57:28;95195.63;;;0.14;73.78
37972;BME280;23794;48.234;8.344;2023-01-31T08:59:55;95194.13;;;0.31;73.21
37972;BME280;23794;48.234;8.344;2023-01-31T09:02:22;95191.19;;;0.50;73.39
37972;BME280;23794;48.234;8.344;2023-01-31T09:04:49;95194.09;;;0.71;72.65
37972;BME280;23794;48.234;8.344;2023-01-31T09:07:16;95188.44;;;0.99;72.49
37972;BME280;23794;48.234;8.344;2023-01-31T09:09:47;95183.72;;;1.13;70.78
37972;BME280;23794;48.234;8.344;2023-01-31T09:12:15;95191.16;;;1.08;71.06
37972;BME280;23794;48.234;8.344;2023-01-31T09:14:41;95184.47;;;0.96;70.89
37972;BME280;23794;48.234;8.344;2023-01-31T09:17:08;95184.13;;;0.80;71.62
37972;BME280;23794;48.234;8.344;2023-01-31T09:19:37;95179.66;;;0.67;71.97
37972;BME280;23794;48.234;8.344;2023-01-31T09:22:04;95182.59;;;0.39;71.77
37972;BME280;23794;48.234;8.344;2023-01-31T09:24:31;95194.50;;;0.47;72.25
37972;BME280;23794;48.234;8.344;2023-01-31T09:26:58;95188.25;;;0.86;72.36
37972;BME280;23794;48.234;8.344;2023-01-31T09:29:25;95191.97;;;1.52;71.82
37972;BME280;23794;48.234;8.344;2023-01-31T09:31:52;95196.97;;;1.97;69.31
37972;BME280;23794;48.234;8.344;2023-01-31T09:34:19;95190.41;;;2.25;67.45
37972;BME280;23794;48.234;8.344;2023-01-31T09:36:45;95176.00;;;2.80;65.89
37972;BME280;23794;48.234;8.344;2023-01-31T09:39:13;95177.47;;;2.69;64.73
37972;BME280;23794;48.234;8.344;2023-01-31T09:46:47;95180.13;;;2.48;65.91
37972;BME280;23794;48.234;8.344;2023-01-31T09:49:27;95177.94;;;2.41;66.01
37972;BME280;23794;48.234;8.344;2023-01-31T09:52:01;95177.94;;;2.41;65.88
37972;BME280;23794;48.234;8.344;2023-01-31T09:54:37;95174.81;;;2.60;66.45
37972;BME280;23794;48.234;8.344;2023-01-31T09:59:48;95178.41;;;3.03;65.97
37972;BME280;23794;48.234;8.344;2023-01-31T10:02:30;95182.59;;;2.92;65.13
37972;BME280;23794;48.234;8.344;2023-01-31T10:05:29;95180.31;;;3.03;65.19
37972;BME280;23794;48.234;8.344;2023-01-31T10:08:10;95195.06;;;3.14;65.54
37972;BME280;23794;48.234;8.344;2023-01-31T10:10:53;95197.22;;;3.00;63.89
37972;BME280;23794;48.234;8.344;2023-01-31T10:13:25;95193.34;;;3.09;64.65
37972;BME280;23794;48.234;8.344;2023-01-31T10:16:25;95196.38;;;3.29;64.30
37972;BME280;23794;48.234;8.344;2023-01-31T10:19:05;95187.53;;;3.62;63.72
37972;BME280;23794;48.234;8.344;2023-01-31T10:21:44;95193.53;;;3.68;61.86
37972;BME280;23794;48.234;8.344;2023-01-31T10:24:19;95179.16;;;3.88;63.07
37972;BME280;23794;48.234;8.344;2023-01-31T10:26:51;95180.78;;;3.68;62.15
37972;BME280;23794;48.234;8.344;2023-01-31T10:32:09;95185.16;;;3.60;60.58
37972;BME280;23794;48.234;8.344;2023-01-31T10:34:46;95187.59;;;3.32;62.33
37972;BME280;23794;48.234;8.344;2023-01-31T10:42:48;95190.75;;;3.13;62.28
37972;BME280;23794;48.234;8.344;2023-01-31T10:45:17;95193.94;;;3.36;61.90
37972;BME280;23794;48.234;8.344;2023-01-31T10:47:50;95174.00;;;3.74;61.75
37972;BME280;23794;48.234;8.344;2023-01-31T10:50:28;95175.72;;;4.13;60.37
37972;BME280;23794;48.234;8.344;2023-01-31T10:58:23;95164.25;;;4.78;58.14
37972;BME280;23794;48.234;8.344;2023-01-31T11:00:50;95156.72;;;4.13;58.95
37972;BME280;23794;48.234;8.344;2023-01-31T11:03:17;95158.09;;;4.06;59.95
37972;BME280;23794;48.234;8.344;2023-01-31T11:05:56;95161.13;;;4.05;60.11
37972;BME280;23794;48.234;8.344;2023-01-31T11:08:42;95163.03;;;4.04;59.34
37972;BME280;23794;48.234;8.344;2023-01-31T11:11:11;95149.09;;;3.81;60.10
37972;BME280;23794;48.234;8.344;2023-01-31T11:13:39;95156.22;;;3.31;61.31
37972;BME280;23794;48.234;8.344;2023-01-31T11:16:09;95143.13;;;3.54;61.02
37972;BME280;23794;48.234;8.344;2023-01-31T11:18:45;95155.59;;;3.68;60.39
37972;BME280;23794;48.234;8.344;2023-01-31T11:21:25;95153.16;;;3.75;59.78
37972;BME280;23794;48.234;8.344;2023-01-31T11:24:12;95151.72;;;3.90;59.84
37972;BME280;23794;48.234;8.344;2023-01-31T11:26:50;95156.44;;;4.39;59.51
37972;BME280;23794;48.234;8.344;2023-01-31T11:29:21;95147.63;;;4.67;58.12
37972;BME280;23794;48.234;8.344;2023-01-31T11:31:51;95159.84;;;4.85;57.01
37972;BME280;23794;48.234;8.344;2023-01-31T11:34:36;95163.78;;;5.13;56.67
37972;BME280;23794;48.234;8.344;2023-01-31T11:37:05;95178.06;;;5.50;56.00
37972;BME280;23794;48.234;8.344;2023-01-31T11:39:38;95165.91;;;5.32;55.77
37972;BME280;23794;48.234;8.344;2023-01-31T11:42:15;95164.88;;;5.24;55.01
37972;BME280;23794;48.234;8.344;2023-01-31T11:44:57;95154.97;;;4.66;56.23
37972;BME280;23794;48.234;8.344;2023-01-31T11:47:26;95161.75;;;4.35;58.21
37972;BME280;23794;48.234;8.344;2023-01-31T11:49:54;95162.78;;;4.43;58.35
37972;BME280;23794;48.234;8.344;2023-01-31T11:52:28;95157.78;;;4.45;59.72
37972;BME280;23794;48.234;8.344;2023-01-31T11:55:07;95142.94;;;4.18;58.50
37972;BME280;23794;48.234;8.344;2023-01-31T11:57:35;95133.38;;;4.20;58.83
37972;BME280;23794;48.234;8.344;2023-01-31T12:00:07;95120.94;;;3.73;59.38
37972;BME280;23794;48.234;8.344;2023-01-31T12:02:51;95116.75;;;3.64;60.33
37972;BME280;23794;48.234;8.344;2023-01-31T12:05:19;95107.97;;;3.46;60.25
37972;BME280;23794;48.234;8.344;2023-01-31T12:07:50;95109.53;;;3.34;60.64
37972;BME280;23794;48.234;8.344;2023-01-31T12:10:41;95095.78;;;3.18;60.61
37972;BME280;23794;48.234;8.344;2023-01-31T12:13:17;95092.44;;;3.00;61.68
37972;BME280;23794;48.234;8.344;2023-01-31T12:18:20;95101.34;;;2.79;62.44
37972;BME280;23794;48.234;8.344;2023-01-31T12:21:13;95101.97;;;2.85;62.85
37972;BME280;23794;48.234;8.344;2023-01-31T12:26:38;95095.94;;;3.01;62.47
37972;BME280;23794;48.234;8.344;2023-01-31T12:31:51;95088.75;;;3.05;62.62
37972;BME280;23794;48.234;8.344;2023-01-31T12:37:30;95087.47;;;2.60;63.55
37972;BME280;23794;48.234;8.344;2023-01-31T12:43:02;95093.53;;;2.27;64.79
37972;BME280;23794;48.234;8.344;2023-01-31T12:53:54;95080.34;;;1.87;66.79
37972;BME280;23794;48.234;8.344;2023-01-31T13:04:55;95088.78;;;1.85;67.01
37972;BME280;23794;48.234;8.344;2023-01-31T13:07:31;95095.50;;;1.70;66.70
37972;BME280;23794;48.234;8.344;2023-01-31T13:10:02;95108.38;;;1.73;67.14
37972;BME280;23794;48.234;8.344;2023-01-31T13:12:32;95109.16;;;1.74;67.51
37972;BME280;23794;48.234;8.344;2023-01-31T13:15:05;95111.53;;;1.66;67.10
37972;BME280;23794;48.234;8.344;2023-01-31T13:17:38;95112.81;;;1.69;67.18
37972;BME280;23794;48.234;8.344;2023-01-31T13:22:55;95093.13;;;1.68;67.83
37972;BME280;23794;48.234;8.344;2023-01-31T13:25:37;95098.56;;;1.51;67.53
37972;BME280;23794;48.234;8.344;2023-01-31T13:28:25;95079.03;;;1.54;68.60
37972;BME280;23794;48.234;8.344;2023-01-31T13:31:04;95093.19;;;1.42;68.15
37972;BME280;23794;48.234;8.344;2023-01-31T13:39:49;95042.31;;;1.53;68.65
37972;BME280;23794;48.234;8.344;2023-01-31T13:46:07;95042.81;;;1.94;67.90
37972;BME280;23794;48.234;8.344;2023-01-31T13:52:00;95035.16;;;1.96;66.85
37972;BME280;23794;48.234;8.344;2023-01-31T13:54:38;95015.56;;;2.08;67.07
37972;BME280;23794;48.234;8.344;2023-01-31T13:57:06;95021.09;;;2.11;66.72
37972;BME280;23794;48.234;8.344;2023-01-31T13:59:35;95024.31;;;2.35;65.82
37972;BME280;23794;48.234;8.344;2023-01-31T14:02:16;95013.38;;;2.73;65.28
37972;BME280;23794;48.234;8.344;2023-01-31T14:04:44;95005.31;;;2.64;64.56
37972;BME280;23794;48.234;8.344;2023-01-31T14:07:15;95010.50;;;2.27;64.73
37972;BME280;23794;48.234;8.344;2023-01-31T14:09:45;95015.31;;;2.22;66.20
37972;BME280;23794;48.234;8.344;2023-01-31T14:12:32;95020.97;;;2.29;66.08
37972;BME280;23794;48.234;8.344;2023-01-31T14:15:00;95026.25;;;2.25;65.47
37972;BME280;23794;48.234;8.344;2023-01-31T14:22:36;95030.00;;;2.84;64.13
37972;BME280;23794;48.234;8.344;2023-01-31T14:27:59;95016.47;;;2.84;63.62
37972;BME280;23794;48.234;8.344;2023-01-31T14:52:32;95008.97;;;2.17;67.05
37972;BME280;23794;48.234;8.344;2023-01-31T14:57:43;94995.91;;;2.49;66.54
37972;BME280;23794;48.234;8.344;2023-01-31T15:05:20;95014.75;;;2.58;65.25
37972;BME280;23794;48.234;8.344;2023-01-31T15:10:54;95008.22;;;2.17;66.57
37972;BME280;23794;48.234;8.344;2023-01-31T15:13:49;95002.19;;;2.11;66.67
37972;BME280;23794;48.234;8.344;2023-01-31T15:16:30;94995.00;;;2.15;66.89
37972;BME280;23794;48.234;8.344;2023-01-31T15:19:11;94999.34;;;2.29;66.66
37972;BME280;23794;48.234;8.344;2023-01-31T15:21:46;94993.09;;;2.16;67.19
37972;BME280;23794;48.234;8.344;2023-01-31T15:24:32;94988.66;;;2.11;67.07
37972;BME280;23794;48.234;8.344;2023-01-31T15:27:01;94993.97;;;1.99;67.20
37972;BME280;23794;48.234;8.344;2023-01-31T15:30:03;94984.75;;;2.00;68.18
37972;BME280;23794;48.234;8.344;2023-01-31T15:32:46;94988.97;;;1.89;67.94
37972;BME280;23794;48.234;8.344;2023-01-31T15:35:20;94982.16;;;1.82;68.87
37972;BME280;23794;48.234;8.344;2023-01-31T15:40:24;94990.09;;;1.49;69.39
37972;BME280;23794;48.234;8.344;2023-01-31T15:42:51;94998.25;;;1.22;70.56
37972;BME280;23794;48.234;8.344;2023-01-31T15:45:26;94970.94;;;1.15;71.26
37972;BME280;23794;48.234;8.344;2023-01-31T15:50:26;94959.25;;;0.94;70.23
37972;BME280;23794;48.234;8.344;2023-01-31T15:53:01;94960.84;;;0.95;70.85
37972;BME280;23794;48.234;8.344;2023-01-31T15:55:28;94968.34;;;0.54;72.99
37972;BME280;23794;48.234;8.344;2023-01-31T15:57:57;94977.88;;;0.51;73.03
37972;BME280;23794;48.234;8.344;2023-01-31T16:02:53;95016.41;;;0.34;73.05
37972;BME280;23794;48.234;8.344;2023-01-31T16:05:31;95005.28;;;0.36;73.06